Time;durP1;ratioP1;P1;durP2;ratioP2;P2;SDS_P1;SDS_P2;PMS_P1;PMS_P2;Temp;Humidity;BMP_temperature;BMP_pressure;BME280_temperature;BME280_humidity;BME280_pressure;Samples;Min_cycle;Max_cycle;Signal;HPM_P1;HPM_P2
2022/07/02 00:01:30;;;;;;;12.67;10.90;;;12.90;95.60;;;;;;5058703;28;20233;-74
2022/07/02 00:04:02;;;;;;;14.93;12.13;;;12.90;95.50;;;;;;5073063;28;20167;-75
2022/07/02 00:06:32;;;;;;;13.23;11.57;;;12.90;95.60;;;;;;5064886;28;20771;-74
2022/07/02 00:09:01;;;;;;;18.90;13.17;;;13.00;95.70;;;;;;5052928;28;20177;-74
2022/07/02 00:11:29;;;;;;;14.10;11.43;;;13.00;95.70;;;;;;5056328;28;20206;-73
2022/07/02 00:13:58;;;;;;;15.73;12.90;;;13.10;95.80;;;;;;5072881;28;20191;-74
2022/07/02 00:16:25;;;;;;;15.73;11.93;;;13.10;95.60;;;;;;5059041;28;20184;-76
2022/07/02 00:18:53;;;;;;;15.97;12.60;;;13.20;95.70;;;;;;5066146;28;20644;-75
2022/07/02 00:21:22;;;;;;;17.87;13.00;;;13.20;95.60;;;;;;5070297;28;20215;-73
2022/07/02 00:23:50;;;;;;;17.03;12.07;;;13.20;95.70;;;;;;5061302;28;20179;-76
2022/07/02 00:26:26;;;;;;;16.27;13.70;;;13.30;95.80;;;;;;5051345;28;20300;-73
2022/07/02 00:29:15;;;;;;;16.07;13.83;;;13.30;95.80;;;;;;5059139;28;20206;-73
2022/07/02 00:31:43;;;;;;;15.47;13.60;;;13.50;95.80;;;;;;5062382;28;20197;-74
2022/07/02 00:34:11;;;;;;;16.83;13.27;;;13.80;95.90;;;;;;5055713;28;20233;-77
2022/07/02 00:36:39;;;;;;;16.27;13.90;;;13.90;95.60;;;;;;5055491;28;20262;-75
2022/07/02 00:39:07;;;;;;;20.93;13.50;;;14.00;95.60;;;;;;5056034;28;20276;-74
2022/07/02 00:41:35;;;;;;;20.97;14.10;;;14.00;95.30;;;;;;5055605;28;20241;-74
2022/07/02 00:44:05;;;;;;;20.23;14.00;;;14.20;95.40;;;;;;5055602;28;20305;-75
2022/07/02 00:46:35;;;;;;;16.33;12.77;;;14.30;95.40;;;;;;5055589;28;20188;-73
2022/07/02 00:49:03;;;;;;;18.30;13.47;;;14.50;95.50;;;;;;5055959;28;20184;-73
2022/07/02 00:51:30;;;;;;;16.23;12.67;;;14.40;95.00;;;;;;5074269;28;20183;-77
2022/07/02 00:53:58;;;;;;;19.77;12.87;;;14.30;95.10;;;;;;5067032;28;20249;-75
2022/07/02 00:56:26;;;;;;;18.53;11.93;;;14.30;95.20;;;;;;5064891;28;20183;-77
2022/07/02 00:58:54;;;;;;;13.90;11.40;;;14.40;95.10;;;;;;5064531;28;20554;-73
2022/07/02 01:01:21;;;;;;;16.13;12.10;;;14.50;95.30;;;;;;5073076;28;20210;-74
2022/07/02 01:03:50;;;;;;;16.73;12.23;;;14.50;95.30;;;;;;5067853;28;20633;-74
2022/07/02 01:06:18;;;;;;;16.67;12.53;;;14.50;95.20;;;;;;5057817;28;20184;-74
2022/07/02 01:11:33;;;;;;;16.93;12.87;;;14.50;95.20;;;;;;5075075;28;20186;-74
2022/07/02 01:14:02;;;;;;;16.93;12.07;;;14.40;95.20;;;;;;5069691;28;20258;-75
2022/07/02 01:16:29;;;;;;;16.20;12.93;;;14.50;95.30;;;;;;5065190;28;20592;-75
2022/07/02 01:18:57;;;;;;;18.10;13.53;;;14.60;95.30;;;;;;5053755;28;20176;-74
2022/07/02 01:21:24;;;;;;;17.70;12.70;;;14.70;95.30;;;;;;5074095;28;20207;-74
2022/07/02 01:23:51;;;;;;;17.93;12.77;;;14.70;95.30;;;;;;5082786;28;20213;-74
2022/07/02 01:26:19;;;;;;;19.10;13.40;;;14.70;95.20;;;;;;5076941;28;20556;-74
2022/07/02 01:28:46;;;;;;;25.03;14.20;;;14.80;95.30;;;;;;5074501;28;20185;-73
2022/07/02 01:31:14;;;;;;;18.50;13.53;;;14.80;95.20;;;;;;5069553;28;20642;-74
2022/07/02 01:33:41;;;;;;;21.23;13.80;;;14.70;95.10;;;;;;5070392;28;20183;-74
2022/07/02 01:36:09;;;;;;;14.83;13.07;;;14.60;95.10;;;;;;5062081;28;20782;-75
2022/07/02 01:38:36;;;;;;;15.70;12.43;;;14.70;95.30;;;;;;5074765;28;20258;-77
2022/07/02 01:43:57;;;;;;;19.33;13.93;;;14.80;95.30;;;;;;5070497;28;20264;-79
2022/07/02 01:46:24;;;;;;;16.67;13.70;;;14.70;95.20;;;;;;5067844;28;20608;-79
2022/07/02 01:48:51;;;;;;;21.73;15.70;;;14.70;95.30;;;;;;5076381;28;20191;-78
2022/07/02 01:51:19;;;;;;;8.93;6.37;;;14.70;95.30;;;;;;5091420;28;20253;-78
2022/07/02 01:53:46;;;;;;;18.93;13.73;;;14.60;95.20;;;;;;5084307;28;20218;-79
2022/07/02 01:56:13;;;;;;;13.13;10.27;;;14.60;95.20;;;;;;5054949;28;20267;-78
2022/07/02 01:58:40;;;;;;;18.17;12.60;;;14.70;95.30;;;;;;5069356;28;20241;-75
2022/07/02 02:01:08;;;;;;;20.70;14.00;;;14.70;95.10;;;;;;5071777;28;20218;-78
2022/07/02 02:03:35;;;;;;;20.10;14.20;;;14.70;95.10;;;;;;5073684;28;20244;-79
2022/07/02 02:06:03;;;;;;;16.67;13.50;;;14.80;95.10;;;;;;5055219;28;20186;-78
2022/07/02 02:08:31;;;;;;;16.33;13.63;;;14.90;95.30;;;;;;5055212;28;20602;-78
2022/07/02 02:10:58;;;;;;;17.83;15.13;;;15.10;95.30;;;;;;5073071;28;20187;-78
2022/07/02 02:13:26;;;;;;;20.73;14.00;;;15.20;95.30;;;;;;5069605;28;20606;-78
2022/07/02 02:15:53;;;;;;;15.10;13.47;;;15.40;95.10;;;;;;5057168;28;20195;-79
2022/07/02 02:18:20;;;;;;;16.17;13.63;;;15.50;95.10;;;;;;5083934;28;20187;-78
2022/07/02 02:20:48;;;;;;;13.43;11.97;;;15.50;94.90;;;;;;5094201;28;20225;-79
2022/07/02 02:23:15;;;;;;;16.83;12.43;;;15.50;94.80;;;;;;5075176;28;20290;-78
2022/07/02 02:25:42;;;;;;;15.07;12.43;;;15.50;94.80;;;;;;5071615;28;20241;-78
2022/07/02 02:28:10;;;;;;;12.30;11.07;;;15.60;94.80;;;;;;5074667;28;20229;-79
2022/07/02 02:30:37;;;;;;;14.13;11.20;;;15.50;94.70;;;;;;5067541;28;20562;-79
2022/07/02 02:33:04;;;;;;;13.53;10.77;;;15.50;94.50;;;;;;5070011;28;20189;-83
2022/07/02 02:35:32;;;;;;;18.50;11.67;;;15.40;94.60;;;;;;5068273;28;20186;-80
2022/07/02 02:37:59;;;;;;;12.93;10.33;;;15.30;94.50;;;;;;5070064;28;20635;-78
2022/07/02 02:40:26;;;;;;;14.27;10.60;;;15.20;94.60;;;;;;5065589;28;20211;-76
2022/07/02 02:42:54;;;;;;;13.70;10.10;;;15.20;94.60;;;;;;5067829;28;20851;-77
2022/07/02 02:45:21;;;;;;;12.10;9.53;;;15.10;94.70;;;;;;5070750;28;20188;-77
2022/07/02 02:47:48;;;;;;;15.60;11.30;;;15.00;94.70;;;;;;5066012;28;20185;-77
2022/07/02 02:50:16;;;;;;;14.77;10.53;;;15.00;94.80;;;;;;5053485;28;20262;-77
2022/07/02 02:52:44;;;;;;;11.30;7.97;;;15.00;94.90;;;;;;5057288;28;20279;-77
2022/07/02 02:55:11;;;;;;;10.77;8.73;;;15.00;94.90;;;;;;5056217;28;20539;-77
2022/07/02 02:57:39;;;;;;;8.07;6.60;;;15.00;94.90;;;;;;5064620;28;20271;-77
2022/07/02 03:00:07;;;;;;;9.43;6.47;;;14.90;94.90;;;;;;5071706;28;20208;-77
2022/07/02 03:02:34;;;;;;;12.27;7.10;;;15.00;95.00;;;;;;5070124;28;20211;-77
2022/07/02 03:05:01;;;;;;;11.97;6.27;;;14.90;95.10;;;;;;5070091;28;20648;-77
2022/07/02 03:07:29;;;;;;;10.13;6.87;;;14.90;95.10;;;;;;5074230;28;20216;-77
2022/07/02 03:09:56;;;;;;;7.80;5.20;;;14.80;95.10;;;;;;5071925;28;20187;-76
2022/07/02 03:12:24;;;;;;;5.03;3.53;;;14.80;95.20;;;;;;5072258;28;20180;-77
2022/07/02 03:14:51;;;;;;;8.90;6.07;;;14.80;95.20;;;;;;5066308;28;20202;-78
2022/07/02 03:17:19;;;;;;;7.77;5.03;;;14.80;95.20;;;;;;5059302;28;20183;-77
2022/07/02 03:19:46;;;;;;;7.43;4.37;;;14.80;95.30;;;;;;5069389;28;20262;-77
2022/07/02 03:22:14;;;;;;;9.23;5.10;;;14.80;95.20;;;;;;5068152;28;20228;-77
2022/07/02 03:24:41;;;;;;;9.10;4.80;;;14.80;95.20;;;;;;5063216;28;20179;-77
2022/07/02 03:27:08;;;;;;;9.40;6.07;;;14.80;95.30;;;;;;5077817;28;20276;-76
2022/07/02 03:29:35;;;;;;;8.37;6.30;;;14.80;95.30;;;;;;5076077;28;20202;-76
2022/07/02 03:32:03;;;;;;;10.43;6.00;;;14.80;95.40;;;;;;5088878;28;20193;-76
2022/07/02 03:34:30;;;;;;;14.17;7.37;;;14.80;95.40;;;;;;5087546;28;20637;-77
2022/07/02 03:36:58;;;;;;;11.87;7.00;;;14.80;95.40;;;;;;5065718;28;20665;-77
2022/07/02 03:39:25;;;;;;;10.23;5.70;;;14.80;95.40;;;;;;5060549;28;20176;-79
2022/07/02 03:41:52;;;;;;;9.57;3.53;;;14.80;95.40;;;;;;5075603;28;20268;-77
2022/07/02 03:44:20;;;;;;;12.07;3.50;;;14.80;95.40;;;;;;5052838;28;20176;-78
2022/07/02 03:46:47;;;;;;;14.93;2.93;;;14.70;95.10;;;;;;5052989;28;20530;-78
2022/07/02 03:49:14;;;;;;;17.60;3.10;;;14.60;95.10;;;;;;5053161;28;20176;-76
2022/07/02 03:51:42;;;;;;;12.27;2.97;;;14.60;95.00;;;;;;5063050;28;20183;-78
2022/07/02 03:54:09;;;;;;;16.17;3.80;;;14.70;95.00;;;;;;5064111;28;20183;-78
2022/07/02 03:56:37;;;;;;;17.07;3.90;;;14.70;95.00;;;;;;5053196;28;20183;-79
2022/07/02 03:59:04;;;;;;;18.20;3.93;;;14.70;95.10;;;;;;5052556;28;20175;-76
2022/07/02 04:01:31;;;;;;;16.43;3.43;;;14.70;95.10;;;;;;5052825;28;20207;-76
2022/07/02 04:03:59;;;;;;;19.13;3.90;;;14.80;95.10;;;;;;5067961;28;20178;-76
2022/07/02 04:06:26;;;;;;;29.50;4.13;;;14.70;94.80;;;;;;5086381;28;20186;-77
2022/07/02 04:08:53;;;;;;;20.27;3.50;;;14.70;94.80;;;;;;5054253;28;20672;-79
2022/07/02 04:11:21;;;;;;;18.60;2.90;;;14.70;94.80;;;;;;5052891;28;20175;-77
2022/07/02 04:13:48;;;;;;;19.50;3.47;;;14.70;94.70;;;;;;5052911;28;20175;-81
2022/07/02 04:16:15;;;;;;;14.43;3.53;;;14.60;94.70;;;;;;5052694;28;20180;-78
2022/07/02 04:18:43;;;;;;;14.13;3.37;;;14.60;94.70;;;;;;5053470;28;20179;-75
2022/07/02 04:21:10;;;;;;;19.07;7.77;;;14.70;94.80;;;;;;5052761;28;20203;-74
2022/07/02 04:23:38;;;;;;;26.97;8.90;;;14.70;94.80;;;;;;5052392;28;20195;-73
2022/07/02 04:26:05;;;;;;;22.77;6.37;;;14.70;94.90;;;;;;5055445;28;20527;-74
2022/07/02 04:28:33;;;;;;;19.90;5.00;;;14.80;95.00;;;;;;5052736;28;20226;-73
2022/07/02 04:31:00;;;;;;;24.03;4.50;;;14.80;95.00;;;;;;5051323;28;20777;-73
2022/07/02 04:33:28;;;;;;;30.13;5.57;;;14.80;95.00;;;;;;5052921;28;20230;-74
2022/07/02 04:35:55;;;;;;;23.77;4.50;;;14.80;95.20;;;;;;5051686;28;20184;-79
2022/07/02 04:38:22;;;;;;;25.60;5.00;;;14.80;95.20;;;;;;5052061;28;20172;-74
2022/07/02 04:40:50;;;;;;;14.77;3.37;;;14.80;95.20;;;;;;5052450;28;20211;-73
2022/07/02 04:43:17;;;;;;;17.37;3.70;;;14.80;95.20;;;;;;5052612;28;20196;-73
2022/07/02 04:45:44;;;;;;;25.97;4.30;;;14.80;95.30;;;;;;5052208;28;20180;-73
2022/07/02 04:48:12;;;;;;;21.27;4.23;;;14.70;95.30;;;;;;5052116;28;20188;-74
2022/07/02 04:50:39;;;;;;;29.03;3.90;;;14.70;95.30;;;;;;5052364;28;20234;-75
2022/07/02 04:53:06;;;;;;;37.53;11.13;;;14.70;95.40;;;;;;5053598;28;20639;-75
2022/07/02 04:55:34;;;;;;;32.07;4.93;;;14.80;95.50;;;;;;5052167;28;20187;-77
2022/07/02 04:58:01;;;;;;;30.57;4.50;;;14.80;95.50;;;;;;5052291;28;20180;-74
2022/07/02 05:00:29;;;;;;;31.33;4.53;;;14.80;95.50;;;;;;5051882;28;20212;-76
2022/07/02 05:02:56;;;;;;;32.33;4.40;;;14.90;95.50;;;;;;5052069;28;20176;-73
2022/07/02 05:05:23;;;;;;;31.50;9.80;;;14.80;95.40;;;;;;5067595;28;20528;-80
2022/07/02 05:07:51;;;;;;;26.03;8.83;;;14.90;95.40;;;;;;5052028;28;20184;-80
2022/07/02 05:10:18;;;;;;;28.47;5.30;;;14.80;95.40;;;;;;5052018;28;20188;-76
2022/07/02 05:12:45;;;;;;;29.13;4.50;;;14.80;95.40;;;;;;5050974;28;20266;-80
2022/07/02 05:15:13;;;;;;;22.20;4.47;;;14.90;95.50;;;;;;5054098;28;20626;-75
2022/07/02 05:17:40;;;;;;;27.07;5.57;;;14.90;95.50;;;;;;5055858;28;20191;-77
2022/07/02 05:20:08;;;;;;;25.80;4.73;;;14.90;95.50;;;;;;5055361;28;20215;-75
2022/07/02 05:22:35;;;;;;;25.23;4.20;;;14.90;95.50;;;;;;5065159;28;20190;-82
2022/07/02 05:25:02;;;;;;;18.87;3.43;;;15.00;95.40;;;;;;5075888;28;20624;-87
2022/07/02 05:27:30;;;;;;;24.07;4.13;;;15.00;95.30;;;;;;5067851;28;20284;-77
2022/07/02 05:29:57;;;;;;;18.13;4.10;;;14.90;95.20;;;;;;5055457;28;20206;-79
2022/07/02 05:32:24;;;;;;;24.30;4.07;;;14.90;95.20;;;;;;5055392;28;20814;-80
2022/07/02 05:34:55;;;;;;;17.20;3.77;;;15.00;95.20;;;;;;5055570;28;20291;-78
2022/07/02 05:37:22;;;;;;;26.37;5.70;;;15.00;95.30;;;;;;5055359;28;20184;-78
2022/07/02 05:39:49;;;;;;;31.30;8.43;;;15.00;95.30;;;;;;5055372;28;20207;-79
2022/07/02 05:42:17;;;;;;;33.27;7.70;;;15.00;95.40;;;;;;5055227;28;20189;-79
2022/07/02 05:44:44;;;;;;;29.00;6.07;;;15.00;95.40;;;;;;5058680;28;20188;-78
2022/07/02 05:47:11;;;;;;;23.40;5.10;;;15.10;95.50;;;;;;5055457;28;20266;-76
2022/07/02 05:49:39;;;;;;;17.40;4.83;;;15.00;95.30;;;;;;5055235;28;20216;-74
2022/07/02 05:52:06;;;;;;;19.83;4.70;;;15.00;95.00;;;;;;5055025;28;20259;-76
2022/07/02 05:54:34;;;;;;;23.23;5.03;;;15.00;94.70;;;;;;5055231;28;20628;-76
2022/07/02 05:57:01;;;;;;;24.37;7.27;;;15.00;94.40;;;;;;5055109;28;20183;-76
2022/07/02 05:59:28;;;;;;;19.27;6.30;;;15.00;94.30;;;;;;5054886;28;20184;-79
2022/07/02 06:01:56;;;;;;;20.93;6.30;;;14.90;94.30;;;;;;5055020;28;20249;-77
2022/07/02 06:04:23;;;;;;;24.67;10.13;;;14.90;94.50;;;;;;5054794;28;20583;-75
2022/07/02 06:09:36;;;;;;;43.20;13.97;;;14.90;94.80;;;;;;5054821;28;20569;-78
2022/07/02 06:12:03;;;;;;;28.63;7.13;;;15.00;94.90;;;;;;5054717;28;20229;-76
2022/07/02 06:14:30;;;;;;;24.97;5.87;;;15.00;95.10;;;;;;5054489;28;20234;-78
2022/07/02 06:16:58;;;;;;;33.70;6.67;;;15.00;95.10;;;;;;5062033;28;20610;-76
2022/07/02 06:19:25;;;;;;;29.33;5.20;;;15.00;95.10;;;;;;5054800;28;20172;-81
2022/07/02 06:21:53;;;;;;;34.47;6.13;;;15.10;95.10;;;;;;5058818;28;20229;-82
2022/07/02 06:24:20;;;;;;;26.37;5.23;;;15.00;94.90;;;;;;5054990;28;20627;-73
2022/07/02 06:26:48;;;;;;;33.27;6.00;;;15.00;94.70;;;;;;5055887;28;20227;-79
2022/07/02 06:29:15;;;;;;;25.00;5.33;;;15.00;94.60;;;;;;5054374;28;20270;-75
2022/07/02 06:31:43;;;;;;;26.73;7.83;;;15.10;94.60;;;;;;5068626;28;20237;-75
2022/07/02 06:34:10;;;;;;;28.73;6.27;;;15.10;94.70;;;;;;5071150;28;20232;-77
2022/07/02 06:36:37;;;;;;;23.77;4.63;;;15.20;94.80;;;;;;5059797;28;20184;-80
2022/07/02 06:39:05;;;;;;;18.57;4.13;;;15.30;94.50;;;;;;5063215;28;20192;-78
2022/07/02 06:44:17;;;;;;;27.30;4.73;;;15.10;94.10;;;;;;5064726;28;20186;-75
2022/07/02 06:46:47;;;;;;;21.93;4.13;;;15.20;94.30;;;;;;5058642;28;20257;-75
2022/07/02 06:49:15;;;;;;;13.80;4.20;;;15.20;94.20;;;;;;5053647;28;20215;-75
2022/07/02 06:51:42;;;;;;;25.50;4.03;;;15.20;94.30;;;;;;5058353;28;20262;-75
2022/07/02 06:54:10;;;;;;;23.83;4.87;;;15.10;94.30;;;;;;5053620;28;20264;-76
2022/07/02 06:56:37;;;;;;;31.37;11.33;;;15.10;94.50;;;;;;5053669;28;20623;-77
2022/07/02 06:59:06;;;;;;;24.50;8.17;;;15.20;94.60;;;;;;5059064;28;20183;-77
2022/07/02 07:01:34;;;;;;;28.07;6.47;;;15.10;94.80;;;;;;5057846;28;20215;-78
2022/07/02 07:04:01;;;;;;;31.27;6.77;;;15.10;95.00;;;;;;5064793;28;20187;-75
2022/07/02 07:06:35;;;;;;;39.20;7.07;;;15.00;95.10;;;;;;5056377;28;20183;-76
2022/07/02 07:09:03;;;;;;;46.57;7.53;;;15.10;95.30;;;;;;5061410;28;20177;-73
2022/07/02 07:11:30;;;;;;;38.80;6.90;;;15.00;95.30;;;;;;5062437;28;20199;-74
2022/07/02 07:13:57;;;;;;;35.33;5.87;;;15.10;95.50;;;;;;5053361;28;20535;-74
2022/07/02 07:16:25;;;;;;;28.20;5.20;;;15.10;95.60;;;;;;5067287;28;20183;-74
2022/07/02 07:21:19;;;;;;;22.27;5.43;;;15.20;95.50;;;;;;5053516;28;20261;-75
2022/07/02 07:23:47;;;;;;;24.80;4.97;;;15.10;95.40;;;;;;5053031;28;20199;-77
2022/07/02 07:26:14;;;;;;;33.90;5.73;;;15.10;95.40;;;;;;5053010;28;20224;-76
2022/07/02 07:28:42;;;;;;;30.87;5.10;;;15.10;95.50;;;;;;5057893;28;20183;-75
2022/07/02 07:31:09;;;;;;;38.43;6.80;;;15.10;95.50;;;;;;5072657;28;20193;-75
2022/07/02 07:33:37;;;;;;;27.80;6.00;;;15.20;95.50;;;;;;5057130;28;20172;-76
2022/07/02 07:36:05;;;;;;;35.07;8.07;;;15.10;95.50;;;;;;5068806;28;20188;-75
2022/07/02 07:38:32;;;;;;;30.53;6.17;;;15.10;95.50;;;;;;5056465;28;20179;-73
2022/07/02 07:41:00;;;;;;;27.90;6.07;;;15.10;95.60;;;;;;5059534;28;20291;-77
2022/07/02 07:43:31;;;;;;;30.73;5.97;;;15.00;95.60;;;;;;5072857;28;20253;-80
2022/07/02 07:45:58;;;;;;;24.43;6.03;;;15.10;95.80;;;;;;5052982;28;20628;-77
2022/07/02 07:48:25;;;;;;;29.10;5.37;;;15.00;95.90;;;;;;5051684;28;20179;-81
2022/07/02 07:50:53;;;;;;;18.37;4.97;;;15.00;96.00;;;;;;5052546;28;20172;-77
2022/07/02 07:53:20;;;;;;;13.03;3.97;;;14.90;96.00;;;;;;5058458;28;20180;-78
2022/07/02 07:55:48;;;;;;;20.87;4.77;;;14.80;95.90;;;;;;5053734;28;20183;-75
2022/07/02 07:58:16;;;;;;;26.57;5.47;;;14.80;96.10;;;;;;5064604;28;20171;-77
2022/07/02 08:00:44;;;;;;;24.77;6.27;;;14.80;96.10;;;;;;5052905;28;20312;-77
2022/07/02 08:03:13;;;;;;;20.77;5.30;;;14.80;96.20;;;;;;5052917;28;20239;-75
2022/07/02 08:05:41;;;;;;;19.47;5.37;;;14.80;96.10;;;;;;5053839;28;20203;-79
2022/07/02 08:08:09;;;;;;;22.50;6.10;;;14.80;96.10;;;;;;5060381;28;20190;-80
2022/07/02 08:10:36;;;;;;;28.13;6.10;;;14.80;96.10;;;;;;5051900;28;20174;-76
2022/07/02 08:13:04;;;;;;;36.63;7.00;;;14.80;96.10;;;;;;5061459;28;20569;-76
2022/07/02 08:15:31;;;;;;;36.57;7.90;;;14.90;96.10;;;;;;5052775;28;20178;-75
2022/07/02 08:17:59;;;;;;;51.10;9.13;;;14.90;96.20;;;;;;5052875;28;20230;-72
2022/07/02 08:20:27;;;;;;;49.50;10.10;;;15.00;96.10;;;;;;5051955;28;20211;-71
2022/07/02 08:22:54;;;;;;;43.07;9.07;;;15.00;96.20;;;;;;5064505;28;20264;-75
2022/07/02 08:25:21;;;;;;;32.77;6.60;;;14.90;96.00;;;;;;5052874;28;20190;-76
2022/07/02 08:27:49;;;;;;;28.57;6.87;;;15.00;96.00;;;;;;5054758;28;20215;-79
2022/07/02 08:30:17;;;;;;;31.80;6.40;;;15.00;95.70;;;;;;5052308;28;20566;-74
2022/07/02 08:32:44;;;;;;;29.47;6.23;;;15.00;95.50;;;;;;5051379;28;20229;-77
2022/07/02 08:35:11;;;;;;;30.37;6.27;;;15.00;95.40;;;;;;5060667;28;20332;-74
2022/07/02 08:37:39;;;;;;;26.70;6.10;;;15.00;95.20;;;;;;5066553;28;20689;-79
2022/07/02 08:40:07;;;;;;;27.00;6.43;;;14.90;95.20;;;;;;5054689;28;20176;-75
2022/07/02 08:42:36;;;;;;;35.17;7.17;;;14.90;95.20;;;;;;5061990;28;20523;-77
2022/07/02 08:45:05;;;;;;;30.00;6.40;;;14.90;95.30;;;;;;5054096;28;20180;-76
2022/07/02 08:47:32;;;;;;;32.60;7.00;;;14.90;95.30;;;;;;5059384;28;20180;-74
2022/07/02 08:50:01;;;;;;;39.93;7.23;;;14.80;95.30;;;;;;5057864;28;20175;-77
2022/07/02 08:52:29;;;;;;;36.33;6.47;;;14.80;95.30;;;;;;5070068;28;20187;-74
2022/07/02 08:54:57;;;;;;;25.17;5.97;;;14.80;95.30;;;;;;5061430;28;20213;-73
2022/07/02 08:57:31;;;;;;;42.63;16.13;;;14.80;95.30;;;;;;5062860;28;20262;-71
2022/07/02 08:59:59;;;;;;;33.93;11.27;;;14.70;95.30;;;;;;5065758;28;20175;-72
2022/07/02 09:02:28;;;;;;;26.53;5.80;;;14.70;95.30;;;;;;5061338;28;20190;-72
2022/07/02 09:04:56;;;;;;;18.83;5.50;;;14.70;95.30;;;;;;5063658;28;20190;-72
2022/07/02 09:07:24;;;;;;;22.50;5.47;;;14.70;95.30;;;;;;5062662;28;20199;-71
2022/07/02 09:09:52;;;;;;;26.33;6.33;;;14.70;95.40;;;;;;5064356;28;20180;-73
2022/07/02 09:12:23;;;;;;;16.80;5.40;;;14.70;95.30;;;;;;5068011;28;20218;-73
2022/07/02 09:14:50;;;;;;;29.33;7.13;;;14.70;95.40;;;;;;5055774;28;20172;-75
2022/07/02 09:17:18;;;;;;;23.63;6.40;;;14.70;95.40;;;;;;5051634;28;20198;-73
2022/07/02 09:19:45;;;;;;;27.10;9.93;;;14.60;95.30;;;;;;5067387;28;20181;-72
2022/07/02 09:22:12;;;;;;;27.13;8.77;;;14.60;95.30;;;;;;5067054;28;20285;-73
2022/07/02 09:24:44;;;;;;;21.10;6.27;;;14.60;95.30;;;;;;5055402;28;20208;-76
2022/07/02 09:27:32;;;;;;;18.10;5.10;;;14.60;95.20;;;;;;5055152;28;20655;-75
2022/07/02 09:29:59;;;;;;;25.67;4.93;;;14.60;95.20;;;;;;5066522;28;20224;-75
2022/07/02 09:32:26;;;;;;;24.83;4.60;;;14.60;95.30;;;;;;5068696;28;20205;-73
2022/07/02 09:34:59;;;;;;;29.07;5.23;;;14.60;95.30;;;;;;5067777;28;20182;-73
2022/07/02 09:37:28;;;;;;;21.37;4.83;;;14.70;95.40;;;;;;5072015;28;20194;-73
2022/07/02 09:40:01;;;;;;;26.50;8.13;;;14.70;95.40;;;;;;5062040;28;20202;-76
2022/07/02 09:42:32;;;;;;;33.83;8.67;;;14.70;95.40;;;;;;5060434;28;20272;-74
2022/07/02 09:45:02;;;;;;;23.33;6.40;;;14.70;95.50;;;;;;5055124;28;20172;-77
2022/07/02 09:47:36;;;;;;;25.87;7.23;;;14.70;95.60;;;;;;5055375;28;20675;-76
2022/07/02 09:50:08;;;;;;;26.87;5.57;;;14.70;95.60;;;;;;5072258;28;20561;-73
2022/07/02 09:52:37;;;;;;;20.63;4.50;;;14.70;95.60;;;;;;5063417;28;20257;-73
2022/07/02 09:55:04;;;;;;;18.07;4.63;;;14.70;95.60;;;;;;5068252;28;20224;-73
2022/07/02 09:57:32;;;;;;;20.50;4.53;;;14.70;95.60;;;;;;5065397;28;20260;-72
2022/07/02 10:00:08;;;;;;;22.43;4.73;;;14.70;95.60;;;;;;5065551;28;20178;-73
2022/07/02 10:02:37;;;;;;;21.30;5.07;;;14.70;95.60;;;;;;5064331;28;20249;-73
2022/07/02 10:05:06;;;;;;;22.90;4.67;;;14.60;95.60;;;;;;5070947;28;20199;-75
2022/07/02 10:07:33;;;;;;;23.90;6.77;;;14.70;95.60;;;;;;5065632;28;20211;-72
2022/07/02 10:10:05;;;;;;;19.33;4.90;;;14.70;95.70;;;;;;5055802;28;20191;-72
2022/07/02 10:12:33;;;;;;;19.83;5.33;;;14.60;95.60;;;;;;5067634;28;20661;-73
2022/07/02 10:15:04;;;;;;;21.87;5.77;;;14.70;95.60;;;;;;5056804;28;20207;-73
2022/07/02 10:17:34;;;;;;;26.40;5.50;;;14.70;95.60;;;;;;5056225;28;20188;-72
2022/07/02 10:20:03;;;;;;;19.73;5.10;;;14.70;95.70;;;;;;5072319;28;20637;-74
2022/07/02 10:22:32;;;;;;;33.03;6.83;;;14.80;95.70;;;;;;5063838;28;20184;-73
2022/07/02 10:25:00;;;;;;;29.10;6.43;;;14.80;95.70;;;;;;5076009;28;20523;-73
2022/07/02 10:27:30;;;;;;;39.57;7.43;;;15.00;95.90;;;;;;5067800;28;20238;-74
2022/07/02 10:29:57;;;;;;;32.63;6.80;;;15.10;95.60;;;;;;5062178;28;20198;-74
2022/07/02 10:32:54;;;;;;;42.87;6.50;;;15.10;95.40;;;;;;5074973;28;20186;-75
2022/07/02 10:35:23;;;;;;;38.57;6.87;;;15.10;95.20;;;;;;5070803;28;20241;-77
2022/07/02 10:37:58;;;;;;;35.53;7.70;;;15.10;95.20;;;;;;5067330;28;20188;-71
2022/07/02 10:40:25;;;;;;;39.17;7.97;;;15.10;95.10;;;;;;5061672;28;20245;-78
2022/07/02 10:42:57;;;;;;;45.87;8.03;;;15.20;95.20;;;;;;5073921;28;20302;-78
2022/07/02 10:45:26;;;;;;;36.50;7.37;;;15.20;95.10;;;;;;5064736;28;20189;-75
2022/07/02 10:48:00;;;;;;;52.67;8.37;;;15.10;94.90;;;;;;5069012;28;20202;-71
2022/07/02 10:50:40;;;;;;;42.27;8.70;;;15.00;94.80;;;;;;5059394;28;20190;-75
2022/07/02 10:53:22;;;;;;;44.87;8.57;;;15.00;94.90;;;;;;5071210;28;20174;-72
2022/07/02 10:55:55;;;;;;;45.07;7.93;;;15.00;94.90;;;;;;5061982;28;20278;-74
2022/07/02 10:58:27;;;;;;;38.87;8.20;;;15.00;95.10;;;;;;5064884;28;20171;-76
2022/07/02 11:00:55;;;;;;;50.83;9.50;;;15.10;95.20;;;;;;5058648;28;20224;-74
2022/07/02 11:03:27;;;;;;;48.23;9.80;;;15.10;95.20;;;;;;5072275;28;20631;-74
2022/07/02 11:05:56;;;;;;;46.40;9.03;;;15.10;95.20;;;;;;5052487;28;20203;-74
2022/07/02 11:08:44;;;;;;;50.27;9.43;;;15.10;95.30;;;;;;5058183;28;20191;-73
2022/07/02 11:11:30;;;;;;;48.73;9.67;;;15.10;95.40;;;;;;5068129;28;20646;-73
2022/07/02 11:14:04;;;;;;;53.60;9.60;;;15.10;95.40;;;;;;5064376;28;20216;-74
2022/07/02 11:16:41;;;;;;;56.23;9.77;;;15.10;95.40;;;;;;5051570;28;20209;-75
2022/07/02 11:19:26;;;;;;;50.20;9.23;;;15.10;95.40;;;;;;5054427;28;20202;-76
2022/07/02 11:21:57;;;;;;;49.83;8.53;;;15.10;95.40;;;;;;5068593;28;20293;-74
2022/07/02 11:24:26;;;;;;;45.90;8.40;;;15.10;95.40;;;;;;5074001;28;20192;-74
2022/07/02 11:26:54;;;;;;;41.17;8.20;;;15.00;95.10;;;;;;5081613;28;20585;-71
2022/07/02 11:29:22;;;;;;;35.37;7.00;;;15.00;94.80;;;;;;5072497;28;20183;-71
2022/07/02 11:31:52;;;;;;;44.10;8.33;;;14.90;94.60;;;;;;5056876;28;20637;-74
2022/07/02 11:34:24;;;;;;;33.93;8.13;;;14.90;94.60;;;;;;5065515;28;20759;-73
2022/07/02 11:36:52;;;;;;;37.37;8.57;;;15.00;94.60;;;;;;5055935;28;20193;-74
2022/07/02 11:39:21;;;;;;;32.90;7.77;;;15.10;94.70;;;;;;5055211;28;20257;-70
2022/07/02 11:41:50;;;;;;;42.37;8.50;;;15.00;94.60;;;;;;5070531;28;20712;-78
2022/07/02 11:44:17;;;;;;;33.77;8.23;;;15.10;94.60;;;;;;5060172;28;20794;-74
2022/07/02 11:46:50;;;;;;;22.93;6.20;;;15.10;94.70;;;;;;5051068;28;20255;-75
2022/07/02 11:49:26;;;;;;;26.80;6.83;;;15.10;94.80;;;;;;5060367;28;20662;-76
2022/07/02 11:51:54;;;;;;;27.17;7.77;;;15.10;94.80;;;;;;5066629;28;20519;-74
2022/07/02 11:54:23;;;;;;;23.17;7.70;;;15.20;94.90;;;;;;5062176;28;20182;-74
2022/07/02 11:56:54;;;;;;;29.33;7.50;;;15.20;95.00;;;;;;5055861;28;20174;-74
2022/07/02 11:59:24;;;;;;;47.17;12.13;;;15.20;94.80;;;;;;5064585;28;20274;-75
2022/07/02 12:01:53;;;;;;;39.63;8.50;;;15.10;94.50;;;;;;5057133;28;20570;-75
2022/07/02 12:04:22;;;;;;;38.33;7.63;;;15.00;94.30;;;;;;5051821;28;20188;-75
2022/07/02 12:06:57;;;;;;;36.20;7.30;;;14.90;94.10;;;;;;5051615;28;20764;-75
2022/07/02 12:09:26;;;;;;;23.47;6.73;;;14.80;94.20;;;;;;5051341;28;20175;-76
2022/07/02 12:11:56;;;;;;;30.80;7.30;;;14.80;94.40;;;;;;5054710;28;20214;-75
2022/07/02 12:14:31;;;;;;;31.67;7.37;;;14.80;94.60;;;;;;5052572;28;20673;-78
2022/07/02 12:16:59;;;;;;;37.07;7.30;;;14.80;94.70;;;;;;5063974;28;20234;-76
2022/07/02 12:19:32;;;;;;;33.50;7.63;;;14.80;94.80;;;;;;5052419;28;20579;-75
2022/07/02 12:22:02;;;;;;;31.30;7.37;;;14.80;94.90;;;;;;5057540;28;20262;-75
2022/07/02 12:24:34;;;;;;;31.43;7.20;;;14.90;95.10;;;;;;5065532;28;20179;-75
2022/07/02 12:27:03;;;;;;;28.47;7.70;;;14.90;95.10;;;;;;5057382;28;20259;-70
2022/07/02 12:32:18;;;;;;;31.40;7.70;;;14.90;94.80;;;;;;5073423;28;20187;-77
2022/07/02 12:34:54;;;;;;;32.17;6.93;;;14.80;94.80;;;;;;5054709;28;20626;-76
2022/07/02 12:37:25;;;;;;;25.03;6.63;;;14.70;94.60;;;;;;5060115;28;20182;-77
2022/07/02 12:40:09;;;;;;;34.93;7.07;;;14.70;94.50;;;;;;5060577;28;20223;-74
2022/07/02 12:42:54;;;;;;;25.03;6.50;;;14.70;94.50;;;;;;5061419;28;20222;-74
2022/07/02 12:45:47;;;;;;;29.40;6.70;;;14.60;94.30;;;;;;5058398;28;20187;-75
2022/07/02 12:48:19;;;;;;;23.63;5.40;;;14.60;94.10;;;;;;5055981;28;20204;-78
2022/07/02 12:50:48;;;;;;;19.67;6.00;;;14.50;93.80;;;;;;5066347;28;20252;-78
2022/07/02 12:53:17;;;;;;;11.37;4.80;;;14.50;93.60;;;;;;5069268;28;20183;-77
2022/07/02 12:55:55;;;;;;;6.10;3.47;;;14.50;92.90;;;;;;5061187;28;20178;-82
2022/07/02 12:58:23;;;;;;;13.50;4.50;;;14.40;92.20;;;;;;5071174;28;20206;-79
2022/07/02 13:00:51;;;;;;;18.10;5.90;;;14.50;93.30;;;;;;5056256;28;20234;-77